Terminal Aerodrome Forecast
Issued by NWS

Home | Current Version | Previous Version | Text Only | Print | Product List | Glossary On
Versions: 1 2 3 4 5 6 7 8 9 10 11 12 13 14 15
000
FTUS45 KREV 202320
TAFRNO
TAF
KRNO 202320Z 2100/2124 30011G18KT P6SM SCT070 BKN200
     FM210700 35006KT P6SM VCSH BKN070 OVC200
     FM211200 02006KT P6SM -SHRA BKN045 OVC070
     FM211800 07008KT P6SM -RA SCT030 OVC045=

USA.gov is the U.S. government's official web portal to all federal, state and local government web resources and services.